Time;durP1;ratioP1;P1;durP2;ratioP2;P2;SDS_P1;SDS_P2;PMS_P1;PMS_P2;Temp;Humidity;BMP_temperature;BMP_pressure;BME280_temperature;BME280_humidity;BME280_pressure;Samples;Min_cycle;Max_cycle;Signal;HPM_P1;HPM_P2
2023/12/07 00:01:57;;;;;;;49.50;27.10;;;;;;;-1.10;86.95;100902.45;108702;282;39427;-71
2023/12/07 00:04:31;;;;;;;52.40;28.10;;;;;;;-1.07;86.88;100903.70;108023;282;914713;-71
2023/12/07 00:07:05;;;;;;;56.70;28.60;;;;;;;-1.04;87.07;100905.48;108730;282;38460;-72
2023/12/07 00:09:40;;;;;;;54.80;29.70;;;;;;;-1.06;86.85;100907.83;108823;282;38897;-74
2023/12/07 00:12:16;;;;;;;51.60;26.80;;;;;;;-1.13;87.01;100906.68;108595;282;153875;-72
2023/12/07 00:14:50;;;;;;;52.90;28.50;;;;;;;-1.13;87.07;100906.84;108818;282;38453;-74
2023/12/07 00:17:27;;;;;;;48.70;26.40;;;;;;;-1.09;87.26;100910.85;108590;282;155873;-71
2023/12/07 00:20:05;;;;;;;51.30;28.30;;;;;;;-1.03;87.34;100913.88;108763;282;39919;-71
2023/12/07 00:22:45;;;;;;;53.00;28.80;;;;;;;-1.00;87.34;100914.77;108638;282;154692;-71
2023/12/07 00:25:19;;;;;;;54.10;29.10;;;;;;;-0.98;87.51;100914.31;108621;282;38426;-69
2023/12/07 00:27:56;;;;;;;56.00;28.40;;;;;;;-0.96;87.53;100916.56;108859;282;39415;-74
2023/12/07 00:30:31;;;;;;;50.40;26.20;;;;;;;-0.99;87.47;100917.20;108586;282;38977;-73
2023/12/07 00:33:10;;;;;;;52.40;27.60;;;;;;;-1.02;87.51;100915.94;108771;282;38483;-69
2023/12/07 00:35:50;;;;;;;53.10;28.10;;;;;;;-1.04;87.63;100916.95;108548;282;155853;-68
2023/12/07 00:38:29;;;;;;;56.70;29.30;;;;;;;-1.02;87.86;100918.35;108761;282;38369;-73
2023/12/07 00:41:08;;;;;;;55.70;29.90;;;;;;;-0.99;87.99;100916.17;108637;282;155188;-72
2023/12/07 00:43:52;;;;;;;56.00;28.80;;;;;;;-1.01;88.00;100918.19;108601;282;176140;-68
2023/12/07 00:46:36;;;;;;;60.40;30.00;;;;;;;-0.99;88.29;100915.83;108565;282;156702;-70
2023/12/07 00:49:13;;;;;;;56.00;27.20;;;;;;;-0.94;88.30;100913.35;108785;282;40058;-72
2023/12/07 00:51:48;;;;;;;51.70;27.20;;;;;;;-0.88;88.44;100916.52;108867;282;39150;-71
2023/12/07 00:54:26;;;;;;;55.80;28.30;;;;;;;-0.87;88.15;100911.59;108727;282;39351;-70
2023/12/07 00:57:04;;;;;;;56.00;30.40;;;;;;;-0.85;88.26;100916.23;108813;281;39656;-68
2023/12/07 00:59:51;;;;;;;57.80;30.90;;;;;;;-0.87;88.16;100914.52;108573;282;154675;-68
2023/12/07 01:02:33;;;;;;;54.60;27.80;;;;;;;-0.87;88.18;100912.80;108798;282;38166;-70
2023/12/07 01:05:10;;;;;;;58.80;29.00;;;;;;;-0.88;88.10;100912.95;108549;282;176125;-70
2023/12/07 01:07:44;;;;;;;50.20;28.20;;;;;;;-0.86;88.31;100913.66;108776;282;38377;-69
2023/12/07 01:10:19;;;;;;;56.70;29.90;;;;;;;-0.79;88.65;100917.56;108657;282;155974;-71
2023/12/07 01:12:53;;;;;;;57.40;31.00;;;;;;;-0.75;88.50;100917.45;108738;282;38204;-68
2023/12/07 01:15:29;;;;;;;57.20;29.80;;;;;;;-0.77;88.36;100920.48;108805;282;38512;-70
2023/12/07 01:18:03;;;;;;;61.30;30.60;;;;;;;-0.78;88.57;100918.09;108604;282;155076;-70
2023/12/07 01:20:41;;;;;;;55.00;28.70;;;;;;;-0.77;88.58;100918.27;108804;282;38339;-68
2023/12/07 01:23:20;;;;;;;52.80;27.40;;;;;;;-0.74;88.72;100921.56;108577;282;154801;-72
2023/12/07 01:25:55;;;;;;;59.60;29.70;;;;;;;-0.68;88.79;100921.69;108676;282;176141;-69
2023/12/07 01:28:35;;;;;;;62.80;30.80;;;;;;;-0.64;88.85;100918.47;108675;282;154933;-73
2023/12/07 01:31:12;;;;;;;62.30;29.10;;;;;;;-0.67;88.62;100918.61;108772;282;39356;-73
2023/12/07 01:33:48;;;;;;;57.20;26.80;;;;;;;-0.72;88.63;100919.05;108842;282;39667;-68
2023/12/07 01:36:22;;;;;;;62.20;30.30;;;;;;;-0.75;88.70;100914.70;108644;282;155568;-70
2023/12/07 01:38:57;;;;;;;53.80;26.50;;;;;;;-0.74;88.81;100912.67;108810;282;38315;-70
2023/12/07 01:41:30;;;;;;;62.10;29.20;;;;;;;-0.76;88.84;100911.25;108516;282;176135;-70
2023/12/07 01:44:17;;;;;;;56.50;29.00;;;;;;;-0.79;89.02;100913.77;108806;282;38320;-68
2023/12/07 01:46:55;;;;;;;65.60;29.50;;;;;;;-0.81;89.21;100913.58;108504;282;155343;-68
2023/12/07 01:49:32;;;;;;;60.50;27.90;;;;;;;-0.83;89.38;100908.08;108756;282;38337;-73
2023/12/07 01:52:09;;;;;;;63.40;28.60;;;;;;;-0.83;89.54;100905.67;108660;281;156093;-74
2023/12/07 01:54:44;;;;;;;58.60;26.40;;;;;;;-0.78;89.88;100909.01;108834;281;38127;-72
2023/12/07 01:57:21;;;;;;;58.10;26.40;;;;;;;-0.75;90.01;100904.41;108828;281;38437;-72
2023/12/07 01:59:57;;;;;;;62.60;28.10;;;;;;;-0.72;90.04;100905.17;108715;281;154091;-70
2023/12/07 02:02:35;;;;;;;61.30;28.40;;;;;;;-0.67;90.24;100906.61;108858;281;39374;-70
2023/12/07 02:05:10;;;;;;;70.60;31.90;;;;;;;-0.67;90.17;100902.84;108697;281;153922;-71
2023/12/07 02:07:45;;;;;;;68.00;28.90;;;;;;;-0.67;90.07;100900.10;108812;281;39345;-71
2023/12/07 02:10:20;;;;;;;60.00;26.80;;;;;;;-0.65;90.34;100902.70;108678;281;156001;-72
2023/12/07 02:12:54;;;;;;;66.60;29.60;;;;;;;-0.63;90.27;100903.41;108851;281;38919;-69
2023/12/07 02:15:28;;;;;;;65.00;30.40;;;;;;;-0.62;90.28;100906.17;108820;281;40001;-70
2023/12/07 02:18:08;;;;;;;70.90;31.40;;;;;;;-0.58;90.46;100901.62;108716;281;154149;-69
2023/12/07 02:20:54;;;;;;;67.40;31.50;;;;;;;-0.57;90.62;100908.83;108771;281;39334;-70
2023/12/07 02:23:31;;;;;;;61.90;27.90;;;;;;;-0.59;90.48;100905.19;108668;281;154191;-72
2023/12/07 02:26:54;;;;;;;61.00;28.90;;;;;;;-0.59;90.56;100904.52;108847;281;39969;-72
2023/12/07 02:29:29;;;;;;;61.30;28.40;;;;;;;-0.57;90.61;100905.58;108686;281;154798;-68
2023/12/07 02:32:04;;;;;;;55.10;26.60;;;;;;;-0.57;90.43;100909.52;108749;281;38657;-70
2023/12/07 02:34:39;;;;;;;58.50;27.50;;;;;;;-0.60;90.33;100907.41;108699;281;154096;-70
2023/12/07 02:37:17;;;;;;;61.90;28.50;;;;;;;-0.60;90.37;100909.98;108818;281;38179;-72
2023/12/07 02:39:53;;;;;;;56.40;26.50;;;;;;;-0.59;90.35;100915.30;108838;281;38411;-71
2023/12/07 02:42:33;;;;;;;57.80;27.60;;;;;;;-0.60;90.50;100914.77;108701;281;38454;-73
2023/12/07 02:45:12;;;;;;;55.70;28.20;;;;;;;-0.62;90.42;100918.17;108695;281;38138;-72
2023/12/07 02:47:46;;;;;;;62.10;28.40;;;;;;;-0.60;90.55;100913.23;108668;281;155287;-70
2023/12/07 02:50:20;;;;;;;51.50;26.80;;;;;;;-0.58;90.62;100917.56;108779;281;38814;-68
2023/12/07 02:52:57;;;;;;;55.40;27.20;;;;;;;-0.62;90.27;100914.58;108687;281;154292;-69
2023/12/07 02:55:32;;;;;;;55.80;27.10;;;;;;;-0.64;90.31;100917.96;108818;281;38920;-69
2023/12/07 02:58:11;;;;;;;54.20;25.70;;;;;;;-0.62;90.52;100916.29;108669;281;156191;-68
2023/12/07 03:00:52;;;;;;;56.10;26.40;;;;;;;-0.59;90.60;100916.84;108789;281;40267;-70
2023/12/07 03:03:28;;;;;;;54.30;26.50;;;;;;;-0.57;90.53;100918.09;108770;281;38650;-71
2023/12/07 03:06:03;;;;;;;59.60;28.60;;;;;;;-0.54;90.78;100917.29;108643;281;154017;-71
2023/12/07 03:08:36;;;;;;;56.30;28.20;;;;;;;-0.52;90.68;100915.58;108837;281;39503;-71
2023/12/07 03:11:11;;;;;;;55.70;27.20;;;;;;;-0.53;90.66;100915.25;108640;281;154818;-71
2023/12/07 03:13:47;;;;;;;62.30;27.90;;;;;;;-0.52;90.72;100913.71;108818;281;38240;-72
2023/12/07 03:16:25;;;;;;;56.10;27.40;;;;;;;-0.51;90.53;100911.67;108672;281;156161;-71
2023/12/07 03:19:02;;;;;;;56.40;27.10;;;;;;;-0.49;90.76;100907.77;108859;281;39421;-69
2023/12/07 03:21:37;;;;;;;54.90;27.50;;;;;;;-0.45;90.83;100908.98;108688;281;175884;-69
2023/12/07 03:24:12;;;;;;;55.80;27.50;;;;;;;-0.45;90.57;100912.79;108690;281;154885;-73
2023/12/07 03:26:47;;;;;;;59.20;29.50;;;;;;;-0.46;90.63;100910.70;108779;277;39500;-70
2023/12/07 03:29:28;;;;;;;62.30;28.30;;;;;;;-0.46;90.51;100915.00;108685;278;154788;-72
2023/12/07 03:32:10;;;;;;;53.70;27.50;;;;;;;-0.44;90.62;100917.08;108785;281;39414;-71
2023/12/07 03:34:50;;;;;;;60.40;29.20;;;;;;;-0.37;90.94;100919.08;108794;281;154426;-72
2023/12/07 03:37:25;;;;;;;64.80;30.50;;;;;;;-0.32;90.94;100919.67;108823;281;38585;-72
2023/12/07 03:40:01;;;;;;;56.60;27.00;;;;;;;-0.32;90.72;100923.45;108767;281;38473;-70
2023/12/07 03:42:38;;;;;;;58.50;26.60;;;;;;;-0.34;90.46;100923.40;108776;281;39174;-70
2023/12/07 03:45:13;;;;;;;55.60;27.00;;;;;;;-0.35;90.35;100924.93;108804;281;39772;-69
2023/12/07 03:47:51;;;;;;;60.10;29.10;;;;;;;-0.37;90.43;100923.88;108681;281;154815;-71
2023/12/07 03:50:27;;;;;;;64.00;31.30;;;;;;;-0.35;90.56;100922.02;108797;281;38179;-72
2023/12/07 03:53:04;;;;;;;71.10;34.60;;;;;;;-0.38;90.46;100922.67;108685;281;155238;-71
2023/12/07 03:55:38;;;;;;;67.40;30.80;;;;;;;-0.39;90.45;100925.05;108797;281;38151;-71
2023/12/07 03:58:15;;;;;;;72.40;33.70;;;;;;;-0.40;90.54;100924.69;108624;281;156330;-73
2023/12/07 04:00:49;;;;;;;57.30;27.30;;;;;;;-0.43;90.46;100927.89;108144;281;918650;-71
2023/12/07 04:03:23;;;;;;;63.20;31.20;;;;;;;-0.42;90.61;100925.86;108808;281;38153;-70
2023/12/07 04:06:03;;;;;;;60.10;29.60;;;;;;;-0.39;90.84;100931.04;108555;281;176125;-68
2023/12/07 04:08:41;;;;;;;78.60;36.20;;;;;;;-0.38;90.81;100926.60;108805;281;39295;-71
2023/12/07 04:11:18;;;;;;;80.60;36.70;;;;;;;-0.38;90.90;100925.08;108671;281;155393;-71
2023/12/07 04:13:54;;;;;;;59.90;26.40;;;;;;;-0.39;90.82;100928.83;108811;281;38214;-71
2023/12/07 04:16:28;;;;;;;64.10;30.20;;;;;;;-0.41;90.83;100927.41;108626;281;154803;-73
2023/12/07 04:19:04;;;;;;;52.90;26.10;;;;;;;-0.39;90.97;100925.73;108801;281;38599;-67
2023/12/07 04:21:38;;;;;;;56.90;26.90;;;;;;;-0.39;90.98;100922.65;108783;281;39312;-68
2023/12/07 04:24:16;;;;;;;59.00;27.70;;;;;;;-0.39;90.96;100921.11;108649;281;153933;-70
2023/12/07 04:26:53;;;;;;;54.50;25.20;;;;;;;-0.39;90.96;100924.19;108784;281;38440;-70
2023/12/07 04:29:29;;;;;;;55.40;25.50;;;;;;;-0.38;91.07;100922.32;108663;281;155616;-71
2023/12/07 04:32:08;;;;;;;53.10;24.10;;;;;;;-0.36;91.01;100921.65;108813;281;38193;-71
2023/12/07 04:34:42;;;;;;;49.50;25.50;;;;;;;-0.36;90.98;100919.79;108753;281;154400;-70
2023/12/07 04:37:17;;;;;;;58.30;27.40;;;;;;;-0.34;90.95;100920.16;108831;281;38182;-71
2023/12/07 04:39:52;;;;;;;53.70;25.40;;;;;;;-0.33;91.08;100922.92;108808;281;38179;-71
2023/12/07 04:42:30;;;;;;;55.70;26.70;;;;;;;-0.34;91.13;100922.72;107966;281;918187;-71
2023/12/07 04:45:05;;;;;;;49.30;23.30;;;;;;;-0.36;91.03;100924.59;108818;281;39681;-74
2023/12/07 04:47:41;;;;;;;50.80;25.20;;;;;;;-0.35;91.06;100919.27;108725;281;155984;-71
2023/12/07 04:50:16;;;;;;;52.20;27.00;;;;;;;-0.31;91.26;100921.40;108816;281;38238;-71
2023/12/07 04:52:55;;;;;;;58.30;27.00;;;;;;;-0.26;91.38;100921.29;108702;281;154548;-71
2023/12/07 04:55:30;;;;;;;59.20;26.50;;;;;;;-0.26;91.22;100921.48;108768;281;38606;-71
2023/12/07 04:58:04;;;;;;;55.90;26.90;;;;;;;-0.28;91.15;100924.53;108809;281;38432;-70
2023/12/07 05:00:40;;;;;;;57.50;26.00;;;;;;;-0.30;91.10;100928.10;108733;282;38724;-70
2023/12/07 05:03:19;;;;;;;54.00;25.20;;;;;;;-0.29;91.18;100930.01;108814;282;39461;-69
2023/12/07 05:05:56;;;;;;;51.50;25.10;;;;;;;-0.31;91.07;100928.77;108580;282;154415;-71
2023/12/07 05:08:31;;;;;;;51.90;24.90;;;;;;;-0.32;91.14;100932.02;108811;282;38212;-71
2023/12/07 05:11:07;;;;;;;51.40;26.60;;;;;;;-0.29;91.43;100931.54;108197;282;574439;-71
2023/12/07 05:13:46;;;;;;;52.80;24.20;;;;;;;-0.26;91.51;100931.93;108758;282;38482;-71
2023/12/07 05:16:19;;;;;;;51.50;24.80;;;;;;;-0.30;91.18;100934.45;108674;281;156129;-71
2023/12/07 05:18:56;;;;;;;54.60;26.00;;;;;;;-0.30;91.14;100938.02;108949;280;39543;-73
2023/12/07 05:21:29;;;;;;;49.40;25.80;;;;;;;-0.27;91.29;100937.41;108800;280;39357;-72
2023/12/07 05:24:04;;;;;;;55.40;27.40;;;;;;;-0.24;91.46;100940.02;108608;280;155137;-70
2023/12/07 05:26:38;;;;;;;58.10;27.40;;;;;;;-0.23;91.43;100940.73;108818;282;38155;-68
2023/12/07 05:29:13;;;;;;;47.10;23.80;;;;;;;-0.23;91.52;100941.24;108676;282;155090;-70
2023/12/07 05:31:49;;;;;;;50.30;23.20;;;;;;;-0.25;91.20;100940.17;108776;282;40064;-70
2023/12/07 05:34:25;;;;;;;52.70;24.90;;;;;;;-0.28;91.24;100943.73;108664;282;155788;-71
2023/12/07 05:36:59;;;;;;;51.20;24.50;;;;;;;-0.26;91.45;100942.73;108697;282;38171;-74
2023/12/07 05:39:33;;;;;;;48.50;24.30;;;;;;;-0.27;91.35;100946.67;108777;282;38360;-71
2023/12/07 05:42:08;;;;;;;49.10;24.60;;;;;;;-0.28;91.54;100946.84;108592;282;154141;-74
2023/12/07 05:44:42;;;;;;;47.40;23.00;;;;;;;-0.25;91.58;100953.20;108792;282;39036;-73
2023/12/07 05:47:16;;;;;;;48.20;24.20;;;;;;;-0.27;91.42;100948.38;108602;282;154962;-74
2023/12/07 05:49:54;;;;;;;50.30;24.70;;;;;;;-0.23;91.58;100950.15;108722;282;38149;-73
2023/12/07 05:52:31;;;;;;;49.00;24.90;;;;;;;-0.23;91.44;100949.48;108598;282;155362;-70
2023/12/07 05:55:15;;;;;;;49.10;26.70;;;;;;;-0.23;91.51;100945.36;108703;282;38450;-70
2023/12/07 05:57:51;;;;;;;48.90;23.60;;;;;;;-0.21;91.70;100950.86;108769;282;39171;-69
2023/12/07 06:00:31;;;;;;;50.40;24.20;;;;;;;-0.19;91.64;100950.20;108625;282;154637;-68
2023/12/07 06:03:10;;;;;;;52.50;25.60;;;;;;;-0.21;91.42;100954.98;108789;282;38410;-72
2023/12/07 06:05:47;;;;;;;50.70;24.00;;;;;;;-0.20;91.38;100960.30;108608;282;154309;-71
2023/12/07 06:08:26;;;;;;;47.30;22.20;;;;;;;-0.16;91.55;100965.34;108783;282;38326;-71
2023/12/07 06:11:05;;;;;;;49.00;25.50;;;;;;;-0.17;91.43;100969.27;108641;282;154062;-71
2023/12/07 06:13:43;;;;;;;45.80;23.90;;;;;;;-0.18;91.53;100968.57;108801;282;38153;-72
2023/12/07 06:16:20;;;;;;;44.00;21.60;;;;;;;-0.19;91.41;100972.83;108768;282;156282;-72
2023/12/07 06:18:59;;;;;;;43.90;23.10;;;;;;;-0.19;91.51;100976.79;108765;282;38355;-70
2023/12/07 06:21:33;;;;;;;45.70;23.40;;;;;;;-0.15;91.63;100977.20;108836;282;38149;-70
2023/12/07 06:24:14;;;;;;;51.20;24.60;;;;;;;-0.15;91.40;100983.55;108617;282;154042;-69
2023/12/07 06:26:55;;;;;;;42.80;22.00;;;;;;;-0.18;91.49;100982.46;108900;282;38339;-72
2023/12/07 06:29:30;;;;;;;40.70;22.50;;;;;;;-0.18;91.42;100986.92;108729;282;154812;-70
2023/12/07 06:32:08;;;;;;;38.50;21.60;;;;;;;-0.16;91.53;100991.41;108788;282;38353;-72
2023/12/07 06:34:46;;;;;;;44.50;23.70;;;;;;;-0.13;91.57;100991.64;108773;282;154452;-73
2023/12/07 06:37:21;;;;;;;44.70;23.50;;;;;;;-0.09;91.62;100990.67;108808;282;38394;-70
2023/12/07 06:39:55;;;;;;;45.20;22.60;;;;;;;-0.13;91.37;100995.23;108796;282;39344;-72
2023/12/07 06:42:31;;;;;;;42.00;21.90;;;;;;;-0.13;91.51;100999.16;108592;282;154434;-72
2023/12/07 06:45:14;;;;;;;39.60;21.70;;;;;;;-0.16;91.35;100999.98;108856;282;38575;-68
2023/12/07 06:47:49;;;;;;;38.10;21.00;;;;;;;-0.18;91.44;101002.70;108661;282;155811;-69
2023/12/07 06:50:25;;;;;;;43.00;23.20;;;;;;;-0.10;91.86;101002.14;108804;282;40159;-74
2023/12/07 06:53:00;;;;;;;41.90;22.60;;;;;;;-0.06;91.73;101004.42;108592;281;176103;-69
2023/12/07 06:55:35;;;;;;;40.00;22.00;;;;;;;-0.06;91.57;101006.66;108768;282;39351;-68
2023/12/07 06:58:11;;;;;;;41.60;21.90;;;;;;;-0.09;91.50;101010.05;108835;282;38776;-73
2023/12/07 07:00:49;;;;;;;37.50;21.10;;;;;;;-0.06;91.67;101008.19;108595;282;39572;-73
2023/12/07 07:03:23;;;;;;;43.40;22.70;;;;;;;-0.05;91.59;101006.16;108866;282;39788;-72
2023/12/07 07:05:59;;;;;;;40.40;21.40;;;;;;;-0.01;91.77;101007.25;108593;282;155401;-72
2023/12/07 07:08:33;;;;;;;39.20;21.70;;;;;;;0.03;91.87;101012.96;108814;282;38185;-72
2023/12/07 07:11:15;;;;;;;43.80;24.00;;;;;;;0.03;91.64;101010.04;108692;281;154803;-74
2023/12/07 07:13:50;;;;;;;43.10;22.60;;;;;;;0.06;91.91;101009.59;108818;281;38387;-71
2023/12/07 07:16:26;;;;;;;43.80;24.60;;;;;;;0.08;91.73;101010.82;108631;281;154872;-71
2023/12/07 07:18:59;;;;;;;41.60;22.90;;;;;;;0.08;91.54;101010.48;108809;281;39518;-72
2023/12/07 07:21:36;;;;;;;42.20;22.10;;;;;;;0.09;91.73;101010.82;108837;281;38348;-74
2023/12/07 07:24:11;;;;;;;42.90;23.20;;;;;;;0.13;91.84;101006.94;108540;281;176095;-71
2023/12/07 07:26:46;;;;;;;46.50;24.20;;;;;;;0.13;91.66;101011.40;108790;281;38766;-70
2023/12/07 07:29:19;;;;;;;43.00;22.20;;;;;;;0.14;91.65;101012.45;108663;281;155306;-69
2023/12/07 07:31:54;;;;;;;42.80;22.70;;;;;;;0.15;91.59;101009.38;108777;281;38433;-68
2023/12/07 07:34:29;;;;;;;39.20;21.60;;;;;;;0.18;91.73;101007.01;108650;281;154961;-74
2023/12/07 07:37:04;;;;;;;39.50;22.00;;;;;;;0.21;91.61;101009.13;108816;281;39332;-73
2023/12/07 07:39:38;;;;;;;43.60;24.00;;;;;;;0.26;91.52;101010.56;108833;281;38337;-71
2023/12/07 07:42:12;;;;;;;40.40;23.10;;;;;;;0.25;91.44;101011.08;108644;281;153903;-73
2023/12/07 07:44:49;;;;;;;41.90;23.00;;;;;;;0.27;91.53;101010.41;108789;281;38167;-73
2023/12/07 07:47:23;;;;;;;41.20;22.40;;;;;;;0.32;91.56;101009.96;108655;281;156090;-73
2023/12/07 07:49:58;;;;;;;52.70;29.00;;;;;;;0.32;91.04;101008.24;108813;281;38210;-71
2023/12/07 07:52:35;;;;;;;46.20;27.00;;;;;;;0.30;90.96;101005.98;108648;281;154521;-69
2023/12/07 07:55:13;;;;;;;44.30;24.80;;;;;;;0.30;91.08;101006.33;108807;281;38753;-71
2023/12/07 07:57:48;;;;;;;51.60;27.90;;;;;;;0.29;91.13;101008.38;108841;281;39426;-71
2023/12/07 08:00:25;;;;;;;53.50;27.00;;;;;;;0.33;91.42;101012.02;108664;281;155520;-72
2023/12/07 08:03:00;;;;;;;80.00;36.80;;;;;;;0.41;91.47;101012.84;108839;281;38783;-72
2023/12/07 08:05:35;;;;;;;82.20;38.00;;;;;;;0.46;91.41;101014.96;108695;281;154274;-71
2023/12/07 08:08:11;;;;;;;139.70;59.10;;;;;;;0.51;91.50;101015.03;108832;281;38414;-71
2023/12/07 08:10:46;;;;;;;89.70;40.20;;;;;;;0.58;91.57;101014.42;108646;281;154049;-73
2023/12/07 08:13:20;;;;;;;75.50;34.20;;;;;;;0.60;91.19;101012.23;108796;281;38296;-71
2023/12/07 08:15:54;;;;;;;72.30;34.70;;;;;;;0.61;90.97;101015.68;108812;281;38347;-71
2023/12/07 08:18:28;;;;;;;52.50;28.20;;;;;;;0.61;90.70;101018.77;108657;281;154475;-68
2023/12/07 08:21:02;;;;;;;80.60;39.10;;;;;;;0.62;90.56;101021.00;108809;281;39291;-69
2023/12/07 08:23:37;;;;;;;68.40;37.60;;;;;;;0.61;90.55;101021.68;108563;282;153248;-68
2023/12/07 08:26:14;;;;;;;45.60;25.50;;;;;;;0.61;90.43;101019.96;108757;282;38277;-68
2023/12/07 08:28:48;;;;;;;46.10;26.70;;;;;;;0.63;90.74;101024.09;108661;281;154689;-72
2023/12/07 08:31:24;;;;;;;57.20;31.70;;;;;;;0.68;90.67;101029.48;108749;281;38279;-73
2023/12/07 08:34:00;;;;;;;47.90;30.40;;;;;;;0.73;90.67;101027.83;108840;281;38290;-74
2023/12/07 08:36:36;;;;;;;42.50;26.00;;;;;;;0.75;90.35;101031.48;108564;281;155234;-72
2023/12/07 08:39:12;;;;;;;52.40;28.70;;;;;;;0.73;89.88;101034.71;108796;282;38143;-71
2023/12/07 08:41:46;;;;;;;56.00;31.30;;;;;;;0.72;90.17;101037.29;108612;282;154806;-71
2023/12/07 08:44:23;;;;;;;47.20;26.80;;;;;;;0.74;90.24;101033.70;108775;282;38486;-71
2023/12/07 08:47:00;;;;;;;40.10;24.20;;;;;;;0.81;90.55;101030.70;108639;282;154813;-73
2023/12/07 08:49:34;;;;;;;52.40;29.30;;;;;;;0.87;90.37;101025.95;108740;282;39402;-71
2023/12/07 08:52:08;;;;;;;48.80;31.50;;;;;;;0.88;90.03;101022.02;108804;282;38501;-71
2023/12/07 08:54:42;;;;;;;45.00;26.20;;;;;;;0.90;90.20;101024.45;108579;281;153828;-73
2023/12/07 08:57:24;;;;;;;45.20;26.00;;;;;;;0.90;89.86;101028.73;108806;282;39397;-72
2023/12/07 09:00:02;;;;;;;46.70;27.10;;;;;;;0.86;89.43;101029.02;108621;282;154395;-73
2023/12/07 09:02:39;;;;;;;44.40;26.50;;;;;;;0.82;89.31;101029.16;108807;282;38191;-71
2023/12/07 09:05:13;;;;;;;46.40;28.00;;;;;;;0.81;89.28;101029.66;108619;282;154591;-71
2023/12/07 09:07:49;;;;;;;51.40;29.20;;;;;;;0.84;89.58;101031.06;108737;282;39508;-71
2023/12/07 09:10:29;;;;;;;50.30;29.50;;;;;;;0.87;89.66;101032.81;108713;282;38171;-73
2023/12/07 09:13:06;;;;;;;46.60;27.00;;;;;;;0.86;89.50;101037.63;108589;282;38385;-70
2023/12/07 09:15:42;;;;;;;49.50;27.60;;;;;;;0.88;89.71;101037.80;108807;282;38763;-67
2023/12/07 09:18:17;;;;;;;46.10;28.10;;;;;;;0.89;89.40;101037.48;108585;282;154561;-72
2023/12/07 09:20:51;;;;;;;43.50;26.00;;;;;;;0.88;89.19;101037.48;108611;282;176063;-71
2023/12/07 09:23:32;;;;;;;50.20;28.50;;;;;;;0.91;89.23;101041.80;108608;282;153916;-73
2023/12/07 09:26:07;;;;;;;53.50;31.30;;;;;;;0.91;89.18;101043.35;108737;282;39230;-73
2023/12/07 09:28:42;;;;;;;69.70;34.70;;;;;;;0.94;89.44;101038.77;108643;282;155197;-68
2023/12/07 09:31:17;;;;;;;58.90;29.70;;;;;;;0.96;89.30;101036.02;108633;276;38927;-68
2023/12/07 09:33:54;;;;;;;45.00;26.30;;;;;;;0.99;89.19;101030.73;108804;282;40086;-68
2023/12/07 09:36:31;;;;;;;42.90;26.40;;;;;;;1.05;89.28;101029.61;108565;282;153794;-69
2023/12/07 09:39:09;;;;;;;49.30;28.40;;;;;;;1.07;89.11;101027.73;108839;282;38444;-72
2023/12/07 09:41:52;;;;;;;51.90;30.00;;;;;;;1.07;88.89;101026.00;108617;282;154955;-74
2023/12/07 09:44:25;;;;;;;47.70;26.60;;;;;;;1.07;88.78;101023.42;108844;282;38773;-68
2023/12/07 09:47:01;;;;;;;40.60;23.10;;;;;;;1.07;88.91;101019.81;108645;282;154621;-68
2023/12/07 09:49:40;;;;;;;41.20;25.10;;;;;;;1.08;88.53;101029.63;108741;282;38914;-70
2023/12/07 09:52:16;;;;;;;41.20;25.90;;;;;;;1.05;88.38;101033.89;108783;282;39330;-70
2023/12/07 09:54:55;;;;;;;44.70;26.80;;;;;;;1.04;88.50;101038.86;108770;282;39301;-73
2023/12/07 09:57:32;;;;;;;53.70;29.90;;;;;;;1.07;88.90;101039.92;108870;282;38437;-72
2023/12/07 10:00:10;;;;;;;48.10;27.40;;;;;;;1.11;89.05;101040.99;108710;281;154052;-74
2023/12/07 10:02:47;;;;;;;49.90;26.30;;;;;;;1.15;88.91;101038.99;108801;282;38421;-73
2023/12/07 10:05:21;;;;;;;43.30;25.70;;;;;;;1.15;88.62;101038.48;108674;281;155972;-74
2023/12/07 10:07:58;;;;;;;46.40;27.60;;;;;;;1.18;88.52;101038.85;108875;281;38484;-69
2023/12/07 10:10:33;;;;;;;47.10;29.30;;;;;;;1.18;88.49;101036.63;108656;282;153646;-70
2023/12/07 10:13:08;;;;;;;47.90;28.10;;;;;;;1.19;88.30;101039.20;108696;281;175660;-72
2023/12/07 10:15:43;;;;;;;51.50;28.60;;;;;;;1.14;88.02;101037.95;108782;282;38663;-72
2023/12/07 10:18:30;;;;;;;57.90;31.80;;;;;;;1.13;88.49;101036.38;108650;281;154530;-74
2023/12/07 10:21:07;;;;;;;39.60;24.20;;;;;;;1.19;88.58;101039.73;108768;282;38504;-75
2023/12/07 10:23:47;;;;;;;56.10;30.60;;;;;;;1.24;88.66;101036.70;108698;281;154142;-72
2023/12/07 10:26:23;;;;;;;51.40;28.80;;;;;;;1.27;88.59;101034.81;108698;281;175658;-75
2023/12/07 10:29:02;;;;;;;46.20;27.30;;;;;;;1.31;88.16;101035.03;108735;281;155184;-73
2023/12/07 10:31:40;;;;;;;47.40;26.70;;;;;;;1.28;88.27;101033.47;108858;281;38657;-73
2023/12/07 10:34:14;;;;;;;44.60;26.10;;;;;;;1.27;88.08;101033.96;108851;282;39812;-70
2023/12/07 10:36:53;;;;;;;44.00;26.40;;;;;;;1.25;88.18;101036.19;108642;282;155428;-71
2023/12/07 10:39:29;;;;;;;44.10;25.20;;;;;;;1.25;88.24;101037.21;108939;282;38476;-73
2023/12/07 10:42:05;;;;;;;38.60;26.50;;;;;;;1.31;88.56;101037.09;108714;282;154584;-73
2023/12/07 10:44:48;;;;;;;41.60;26.30;;;;;;;1.39;88.62;101036.67;108848;282;40090;-72
2023/12/07 10:47:27;;;;;;;42.90;27.00;;;;;;;1.46;88.76;101033.81;108746;282;154072;-71
2023/12/07 10:50:12;;;;;;;46.80;29.10;;;;;;;1.53;88.64;101030.63;108789;282;38149;-70
2023/12/07 10:52:54;;;;;;;44.10;26.30;;;;;;;1.54;88.05;101030.29;108771;282;155552;-72
2023/12/07 10:55:33;;;;;;;47.60;26.30;;;;;;;1.50;87.88;101027.16;108727;282;38200;-70
2023/12/07 10:58:08;;;;;;;47.90;26.70;;;;;;;1.53;87.85;101029.25;108818;282;38210;-71
2023/12/07 11:00:47;;;;;;;42.90;25.90;;;;;;;1.52;87.54;101029.56;108625;282;153673;-71
2023/12/07 11:03:26;;;;;;;47.10;27.00;;;;;;;1.52;87.75;101031.11;108862;282;38156;-69
2023/12/07 11:06:07;;;;;;;45.80;27.90;;;;;;;1.58;88.16;101027.04;108639;282;155026;-72
2023/12/07 11:08:52;;;;;;;47.70;27.50;;;;;;;1.60;87.87;101026.20;108829;282;39120;-74
2023/12/07 11:11:37;;;;;;;44.80;27.30;;;;;;;1.57;87.56;101025.32;108629;282;155613;-74
2023/12/07 11:14:16;;;;;;;40.00;25.40;;;;;;;1.57;87.61;101020.15;108758;282;38270;-74
2023/12/07 11:16:51;;;;;;;43.00;26.40;;;;;;;1.57;87.75;101019.98;108679;282;155091;-72
2023/12/07 11:19:52;;;;;;;64.60;34.80;;;;;;;1.62;87.85;101019.85;108784;282;38634;-71
2023/12/07 11:22:27;;;;;;;101.40;46.50;;;;;;;1.60;87.20;101016.75;108821;282;38587;-72
2023/12/07 11:25:04;;;;;;;94.30;44.10;;;;;;;1.55;87.51;101013.27;108582;282;154018;-71
2023/12/07 11:27:40;;;;;;;49.10;28.80;;;;;;;1.62;87.86;101009.71;108902;282;38354;-71
2023/12/07 11:30:17;;;;;;;68.00;36.90;;;;;;;1.65;87.45;101010.95;108641;282;156337;-71
2023/12/07 11:32:52;;;;;;;90.70;45.90;;;;;;;1.62;87.43;101012.30;108451;282;173277;-72
2023/12/07 11:35:31;;;;;;;77.20;40.60;;;;;;;1.62;87.46;101011.60;108737;282;154630;-72
2023/12/07 11:38:18;;;;;;;78.40;39.80;;;;;;;1.60;87.33;101014.52;108785;282;38827;-73
2023/12/07 11:40:52;;;;;;;64.60;34.40;;;;;;;1.61;87.54;101012.80;108697;282;155065;-73
2023/12/07 11:43:53;;;;;;;56.90;34.10;;;;;;;1.60;86.82;101014.17;108809;282;38405;-73
2023/12/07 11:46:28;;;;;;;64.90;36.30;;;;;;;1.52;86.91;101016.67;108626;283;38408;-73
2023/12/07 11:49:02;;;;;;;56.30;33.30;;;;;;;1.54;87.39;101016.88;108548;283;154043;-73
2023/12/07 11:51:36;;;;;;;65.00;35.20;;;;;;;1.53;87.31;101020.12;108621;283;38299;-73
2023/12/07 11:54:11;;;;;;;65.10;35.20;;;;;;;1.52;87.23;101018.40;108511;283;154480;-74